sensor_id;sensor_type;location;lat;lon;timestamp;temperature;humidity
7461;DHT22;6757;52.258;12.840;2022-10-17T00:01:41;11.70;99.90
7461;DHT22;6757;52.258;12.840;2022-10-17T00:04:08;11.70;99.90
7461;DHT22;6757;52.258;12.840;2022-10-17T00:06:35;11.70;99.90
7461;DHT22;6757;52.258;12.840;2022-10-17T00:09:02;11.50;99.90
7461;DHT22;6757;52.258;12.840;2022-10-17T00:11:29;11.60;99.90
7461;DHT22;6757;52.258;12.840;2022-10-17T00:13:56;11.60;99.90
7461;DHT22;6757;52.258;12.840;2022-10-17T00:16:26;11.60;99.90
7461;DHT22;6757;52.258;12.840;2022-10-17T00:18:54;11.60;99.90
7461;DHT22;6757;52.258;12.840;2022-10-17T00:21:23;11.60;99.90
7461;DHT22;6757;52.258;12.840;2022-10-17T00:23:51;11.60;99.90
7461;DHT22;6757;52.258;12.840;2022-10-17T00:26:18;11.60;99.90
7461;DHT22;6757;52.258;12.840;2022-10-17T00:28:46;11.60;99.90
7461;DHT22;6757;52.258;12.840;2022-10-17T00:31:15;11.60;99.90
7461;DHT22;6757;52.258;12.840;2022-10-17T00:33:44;11.60;99.90
7461;DHT22;6757;52.258;12.840;2022-10-17T00:36:13;11.60;99.90
7461;DHT22;6757;52.258;12.840;2022-10-17T00:38:42;11.60;99.90
7461;DHT22;6757;52.258;12.840;2022-10-17T00:41:12;11.60;99.90
7461;DHT22;6757;52.258;12.840;2022-10-17T00:43:56;11.60;99.90
7461;DHT22;6757;52.258;12.840;2022-10-17T00:46:26;11.70;99.90
7461;DHT22;6757;52.258;12.840;2022-10-17T00:48:59;11.70;99.90
7461;DHT22;6757;52.258;12.840;2022-10-17T00:51:33;11.60;99.90
7461;DHT22;6757;52.258;12.840;2022-10-17T00:54:04;11.60;99.90
7461;DHT22;6757;52.258;12.840;2022-10-17T00:56:32;11.60;99.90
7461;DHT22;6757;52.258;12.840;2022-10-17T00:58:59;11.60;99.90
7461;DHT22;6757;52.258;12.840;2022-10-17T01:01:26;11.60;99.90
7461;DHT22;6757;52.258;12.840;2022-10-17T01:03:53;11.60;99.90
7461;DHT22;6757;52.258;12.840;2022-10-17T01:06:21;11.60;99.90
7461;DHT22;6757;52.258;12.840;2022-10-17T01:08:48;11.80;99.90
7461;DHT22;6757;52.258;12.840;2022-10-17T01:11:29;12.30;99.90
7461;DHT22;6757;52.258;12.840;2022-10-17T01:14:03;11.50;99.90
7461;DHT22;6757;52.258;12.840;2022-10-17T01:16:37;11.50;99.90
7461;DHT22;6757;52.258;12.840;2022-10-17T01:22:07;11.40;99.90
7461;DHT22;6757;52.258;12.840;2022-10-17T01:24:51;11.40;99.90
7461;DHT22;6757;52.258;12.840;2022-10-17T01:27:50;11.40;99.90
7461;DHT22;6757;52.258;12.840;2022-10-17T01:33:30;11.40;99.90
7461;DHT22;6757;52.258;12.840;2022-10-17T01:36:06;11.30;99.90
7461;DHT22;6757;52.258;12.840;2022-10-17T01:38:39;11.30;99.90
7461;DHT22;6757;52.258;12.840;2022-10-17T01:41:14;11.30;99.90
7461;DHT22;6757;52.258;12.840;2022-10-17T01:43:48;11.30;99.90
7461;DHT22;6757;52.258;12.840;2022-10-17T01:46:23;11.30;99.90
7461;DHT22;6757;52.258;12.840;2022-10-17T01:48:54;11.40;99.90
7461;DHT22;6757;52.258;12.840;2022-10-17T01:51:27;11.30;99.90
7461;DHT22;6757;52.258;12.840;2022-10-17T01:54:00;11.40;99.90
7461;DHT22;6757;52.258;12.840;2022-10-17T01:56:30;11.40;99.90
7461;DHT22;6757;52.258;12.840;2022-10-17T01:59:01;11.40;99.90
7461;DHT22;6757;52.258;12.840;2022-10-17T02:01:35;11.50;99.90
7461;DHT22;6757;52.258;12.840;2022-10-17T02:04:03;11.50;99.90
7461;DHT22;6757;52.258;12.840;2022-10-17T02:06:33;11.50;99.90
7461;DHT22;6757;52.258;12.840;2022-10-17T02:09:01;11.50;99.90
7461;DHT22;6757;52.258;12.840;2022-10-17T02:11:48;11.50;99.90
7461;DHT22;6757;52.258;12.840;2022-10-17T02:14:24;11.50;99.90
7461;DHT22;6757;52.258;12.840;2022-10-17T02:17:04;11.50;99.90
7461;DHT22;6757;52.258;12.840;2022-10-17T02:19:43;11.50;99.90
7461;DHT22;6757;52.258;12.840;2022-10-17T02:22:22;11.50;99.90
7461;DHT22;6757;52.258;12.840;2022-10-17T02:24:59;11.50;99.90
7461;DHT22;6757;52.258;12.840;2022-10-17T02:27:34;11.50;99.90
7461;DHT22;6757;52.258;12.840;2022-10-17T02:30:11;11.50;99.90
7461;DHT22;6757;52.258;12.840;2022-10-17T02:32:46;11.50;99.90
7461;DHT22;6757;52.258;12.840;2022-10-17T02:35:17;11.50;99.90
7461;DHT22;6757;52.258;12.840;2022-10-17T02:37:46;11.50;99.90
7461;DHT22;6757;52.258;12.840;2022-10-17T02:40:16;11.50;99.90
7461;DHT22;6757;52.258;12.840;2022-10-17T02:42:45;11.50;99.90
7461;DHT22;6757;52.258;12.840;2022-10-17T02:45:13;11.60;99.90
7461;DHT22;6757;52.258;12.840;2022-10-17T02:47:49;11.60;99.90
7461;DHT22;6757;52.258;12.840;2022-10-17T02:50:24;11.60;99.90
7461;DHT22;6757;52.258;12.840;2022-10-17T02:53:07;11.60;99.90
7461;DHT22;6757;52.258;12.840;2022-10-17T02:55:56;11.70;99.90
7461;DHT22;6757;52.258;12.840;2022-10-17T02:58:30;11.80;99.90
7461;DHT22;6757;52.258;12.840;2022-10-17T03:00:58;11.80;99.90
7461;DHT22;6757;52.258;12.840;2022-10-17T03:03:29;11.80;99.90
7461;DHT22;6757;52.258;12.840;2022-10-17T03:05:56;11.90;99.90
7461;DHT22;6757;52.258;12.840;2022-10-17T03:08:24;12.00;99.90
7461;DHT22;6757;52.258;12.840;2022-10-17T03:10:51;12.10;99.90
7461;DHT22;6757;52.258;12.840;2022-10-17T03:13:18;12.10;99.90
7461;DHT22;6757;52.258;12.840;2022-10-17T03:15:45;12.10;99.90
7461;DHT22;6757;52.258;12.840;2022-10-17T03:18:13;12.20;99.90
7461;DHT22;6757;52.258;12.840;2022-10-17T03:20:41;12.30;99.90
7461;DHT22;6757;52.258;12.840;2022-10-17T03:23:08;12.30;99.90
7461;DHT22;6757;52.258;12.840;2022-10-17T03:25:35;12.40;99.90
7461;DHT22;6757;52.258;12.840;2022-10-17T03:28:02;12.40;99.90
7461;DHT22;6757;52.258;12.840;2022-10-17T03:30:30;12.40;99.90
7461;DHT22;6757;52.258;12.840;2022-10-17T03:32:57;12.40;99.90
7461;DHT22;6757;52.258;12.840;2022-10-17T03:35:25;12.50;99.90
7461;DHT22;6757;52.258;12.840;2022-10-17T03:37:55;12.50;99.90
7461;DHT22;6757;52.258;12.840;2022-10-17T03:40:22;12.50;99.90
7461;DHT22;6757;52.258;12.840;2022-10-17T03:42:49;12.50;99.90
7461;DHT22;6757;52.258;12.840;2022-10-17T03:45:16;12.50;99.90
7461;DHT22;6757;52.258;12.840;2022-10-17T03:47:43;12.50;99.90
7461;DHT22;6757;52.258;12.840;2022-10-17T03:50:10;12.50;99.90
7461;DHT22;6757;52.258;12.840;2022-10-17T03:52:37;12.50;99.90
7461;DHT22;6757;52.258;12.840;2022-10-17T03:55:05;12.60;99.90
7461;DHT22;6757;52.258;12.840;2022-10-17T03:57:33;12.40;99.90
7461;DHT22;6757;52.258;12.840;2022-10-17T04:00:02;12.50;99.90
7461;DHT22;6757;52.258;12.840;2022-10-17T04:02:29;12.40;99.90
7461;DHT22;6757;52.258;12.840;2022-10-17T04:04:56;12.40;99.90
7461;DHT22;6757;52.258;12.840;2022-10-17T04:07:23;12.40;99.90
7461;DHT22;6757;52.258;12.840;2022-10-17T04:09:50;12.40;99.90
7461;DHT22;6757;52.258;12.840;2022-10-17T04:12:18;12.40;99.90
7461;DHT22;6757;52.258;12.840;2022-10-17T04:14:45;12.40;99.90
7461;DHT22;6757;52.258;12.840;2022-10-17T04:17:12;12.40;99.90
7461;DHT22;6757;52.258;12.840;2022-10-17T04:19:39;12.30;99.90
7461;DHT22;6757;52.258;12.840;2022-10-17T04:22:06;12.40;99.90
7461;DHT22;6757;52.258;12.840;2022-10-17T04:24:33;12.30;99.90
7461;DHT22;6757;52.258;12.840;2022-10-17T04:27:00;12.40;99.90
7461;DHT22;6757;52.258;12.840;2022-10-17T04:29:29;12.30;99.90
7461;DHT22;6757;52.258;12.840;2022-10-17T04:31:55;12.30;99.90
7461;DHT22;6757;52.258;12.840;2022-10-17T04:34:22;12.30;99.90
7461;DHT22;6757;52.258;12.840;2022-10-17T04:36:49;12.30;99.90
7461;DHT22;6757;52.258;12.840;2022-10-17T04:39:16;12.30;99.90
7461;DHT22;6757;52.258;12.840;2022-10-17T04:41:43;12.30;99.90
7461;DHT22;6757;52.258;12.840;2022-10-17T04:44:11;12.30;99.90
7461;DHT22;6757;52.258;12.840;2022-10-17T04:46:39;13.20;99.90
7461;DHT22;6757;52.258;12.840;2022-10-17T04:49:06;12.30;99.90
7461;DHT22;6757;52.258;12.840;2022-10-17T04:51:34;12.30;99.90
7461;DHT22;6757;52.258;12.840;2022-10-17T04:54:01;12.30;99.90
7461;DHT22;6757;52.258;12.840;2022-10-17T04:56:27;12.30;99.90
7461;DHT22;6757;52.258;12.840;2022-10-17T04:58:54;12.30;99.90
7461;DHT22;6757;52.258;12.840;2022-10-17T05:01:22;12.40;99.90
7461;DHT22;6757;52.258;12.840;2022-10-17T05:03:51;12.40;99.90
7461;DHT22;6757;52.258;12.840;2022-10-17T05:06:19;12.40;99.90
7461;DHT22;6757;52.258;12.840;2022-10-17T05:08:47;12.40;99.90
7461;DHT22;6757;52.258;12.840;2022-10-17T05:11:16;12.40;99.90
7461;DHT22;6757;52.258;12.840;2022-10-17T05:13:44;12.40;99.90
7461;DHT22;6757;52.258;12.840;2022-10-17T05:16:11;12.40;99.90
7461;DHT22;6757;52.258;12.840;2022-10-17T05:18:37;12.40;99.90
7461;DHT22;6757;52.258;12.840;2022-10-17T05:21:06;12.40;99.90
7461;DHT22;6757;52.258;12.840;2022-10-17T05:23:33;12.40;99.90
7461;DHT22;6757;52.258;12.840;2022-10-17T05:26:00;12.50;99.90
7461;DHT22;6757;52.258;12.840;2022-10-17T05:28:26;12.50;99.90
7461;DHT22;6757;52.258;12.840;2022-10-17T05:30:53;12.50;99.90
7461;DHT22;6757;52.258;12.840;2022-10-17T05:33:21;12.50;99.90
7461;DHT22;6757;52.258;12.840;2022-10-17T05:35:49;12.50;99.90
7461;DHT22;6757;52.258;12.840;2022-10-17T05:38:17;12.40;99.90
7461;DHT22;6757;52.258;12.840;2022-10-17T05:40:44;12.40;99.90
7461;DHT22;6757;52.258;12.840;2022-10-17T05:43:11;12.50;99.90
7461;DHT22;6757;52.258;12.840;2022-10-17T05:45:39;12.50;99.90
7461;DHT22;6757;52.258;12.840;2022-10-17T05:48:06;12.50;99.90
7461;DHT22;6757;52.258;12.840;2022-10-17T05:50:34;12.50;99.90
7461;DHT22;6757;52.258;12.840;2022-10-17T05:53:01;12.50;99.90
7461;DHT22;6757;52.258;12.840;2022-10-17T05:55:30;12.50;99.90
7461;DHT22;6757;52.258;12.840;2022-10-17T05:57:58;12.50;99.90
7461;DHT22;6757;52.258;12.840;2022-10-17T06:00:25;12.50;99.90
7461;DHT22;6757;52.258;12.840;2022-10-17T06:02:53;12.50;99.90
7461;DHT22;6757;52.258;12.840;2022-10-17T06:05:20;12.50;99.90
7461;DHT22;6757;52.258;12.840;2022-10-17T06:07:47;12.50;99.90
7461;DHT22;6757;52.258;12.840;2022-10-17T06:10:15;12.60;99.90
7461;DHT22;6757;52.258;12.840;2022-10-17T06:12:46;12.60;99.90
7461;DHT22;6757;52.258;12.840;2022-10-17T06:15:16;12.60;99.90
7461;DHT22;6757;52.258;12.840;2022-10-17T06:17:43;12.60;99.90
7461;DHT22;6757;52.258;12.840;2022-10-17T06:20:10;12.60;99.90
7461;DHT22;6757;52.258;12.840;2022-10-17T06:22:37;12.60;99.90
7461;DHT22;6757;52.258;12.840;2022-10-17T06:25:04;12.60;99.90
7461;DHT22;6757;52.258;12.840;2022-10-17T06:27:31;12.60;99.90
7461;DHT22;6757;52.258;12.840;2022-10-17T06:30:00;12.60;99.90
7461;DHT22;6757;52.258;12.840;2022-10-17T06:32:27;12.60;99.90
7461;DHT22;6757;52.258;12.840;2022-10-17T06:34:53;12.60;99.90
7461;DHT22;6757;52.258;12.840;2022-10-17T06:37:20;12.70;99.90
7461;DHT22;6757;52.258;12.840;2022-10-17T06:39:47;12.70;99.90
7461;DHT22;6757;52.258;12.840;2022-10-17T06:42:14;12.70;99.90
7461;DHT22;6757;52.258;12.840;2022-10-17T06:44:41;12.70;99.90
7461;DHT22;6757;52.258;12.840;2022-10-17T06:47:09;12.80;99.90
7461;DHT22;6757;52.258;12.840;2022-10-17T06:49:36;12.80;99.90
7461;DHT22;6757;52.258;12.840;2022-10-17T06:52:03;12.90;99.90
7461;DHT22;6757;52.258;12.840;2022-10-17T06:54:31;12.90;99.90
7461;DHT22;6757;52.258;12.840;2022-10-17T06:56:57;13.00;99.90
7461;DHT22;6757;52.258;12.840;2022-10-17T06:59:24;13.10;99.90
7461;DHT22;6757;52.258;12.840;2022-10-17T07:01:51;13.10;99.90
7461;DHT22;6757;52.258;12.840;2022-10-17T07:04:19;13.20;99.90
7461;DHT22;6757;52.258;12.840;2022-10-17T07:06:46;13.20;99.90
7461;DHT22;6757;52.258;12.840;2022-10-17T07:09:13;13.30;99.90
7461;DHT22;6757;52.258;12.840;2022-10-17T07:11:41;13.40;99.90
7461;DHT22;6757;52.258;12.840;2022-10-17T07:14:08;13.40;99.90
7461;DHT22;6757;52.258;12.840;2022-10-17T07:16:35;13.50;99.90
7461;DHT22;6757;52.258;12.840;2022-10-17T07:19:02;13.50;99.90
7461;DHT22;6757;52.258;12.840;2022-10-17T07:21:31;13.60;99.90
7461;DHT22;6757;52.258;12.840;2022-10-17T07:23:57;13.70;99.90
7461;DHT22;6757;52.258;12.840;2022-10-17T07:26:24;13.80;99.90
7461;DHT22;6757;52.258;12.840;2022-10-17T07:28:53;13.90;99.90
7461;DHT22;6757;52.258;12.840;2022-10-17T07:31:21;13.90;99.90
7461;DHT22;6757;52.258;12.840;2022-10-17T07:33:49;14.00;99.90
7461;DHT22;6757;52.258;12.840;2022-10-17T07:36:17;14.10;99.90
7461;DHT22;6757;52.258;12.840;2022-10-17T07:38:45;14.20;99.90
7461;DHT22;6757;52.258;12.840;2022-10-17T07:41:12;14.30;99.90
7461;DHT22;6757;52.258;12.840;2022-10-17T07:43:39;14.50;99.90
7461;DHT22;6757;52.258;12.840;2022-10-17T07:46:08;14.50;99.90
7461;DHT22;6757;52.258;12.840;2022-10-17T07:48:36;14.70;99.90
7461;DHT22;6757;52.258;12.840;2022-10-17T07:51:05;14.80;99.90
7461;DHT22;6757;52.258;12.840;2022-10-17T07:53:35;14.90;99.90
7461;DHT22;6757;52.258;12.840;2022-10-17T07:56:08;15.00;99.90
7461;DHT22;6757;52.258;12.840;2022-10-17T07:58:35;15.10;99.90
7461;DHT22;6757;52.258;12.840;2022-10-17T08:01:04;15.20;99.90
7461;DHT22;6757;52.258;12.840;2022-10-17T08:03:34;15.40;99.90
7461;DHT22;6757;52.258;12.840;2022-10-17T08:06:01;15.50;99.90
7461;DHT22;6757;52.258;12.840;2022-10-17T08:08:29;15.60;99.90
7461;DHT22;6757;52.258;12.840;2022-10-17T08:11:01;15.70;99.90
7461;DHT22;6757;52.258;12.840;2022-10-17T08:13:30;15.80;99.90
7461;DHT22;6757;52.258;12.840;2022-10-17T08:15:59;15.90;99.90
7461;DHT22;6757;52.258;12.840;2022-10-17T08:18:26;16.00;99.90
7461;DHT22;6757;52.258;12.840;2022-10-17T08:20:53;16.10;99.90
7461;DHT22;6757;52.258;12.840;2022-10-17T08:23:20;16.20;99.90
7461;DHT22;6757;52.258;12.840;2022-10-17T08:25:47;16.30;99.90
7461;DHT22;6757;52.258;12.840;2022-10-17T08:28:13;16.40;99.90
7461;DHT22;6757;52.258;12.840;2022-10-17T08:30:42;16.60;99.90
7461;DHT22;6757;52.258;12.840;2022-10-17T08:33:08;16.70;99.90
7461;DHT22;6757;52.258;12.840;2022-10-17T08:35:35;16.80;99.90
7461;DHT22;6757;52.258;12.840;2022-10-17T08:38:02;17.00;99.90
7461;DHT22;6757;52.258;12.840;2022-10-17T08:40:31;17.10;99.90
7461;DHT22;6757;52.258;12.840;2022-10-17T08:43:16;17.20;99.90
7461;DHT22;6757;52.258;12.840;2022-10-17T08:45:54;17.30;99.90
7461;DHT22;6757;52.258;12.840;2022-10-17T08:48:26;17.50;99.90
7461;DHT22;6757;52.258;12.840;2022-10-17T08:50:56;17.60;99.90
7461;DHT22;6757;52.258;12.840;2022-10-17T08:53:31;17.70;99.90
7461;DHT22;6757;52.258;12.840;2022-10-17T08:56:03;17.80;99.90
7461;DHT22;6757;52.258;12.840;2022-10-17T08:58:32;17.90;99.90
7461;DHT22;6757;52.258;12.840;2022-10-17T09:01:05;18.00;99.90
7461;DHT22;6757;52.258;12.840;2022-10-17T09:03:58;18.10;99.90
7461;DHT22;6757;52.258;12.840;2022-10-17T09:06:35;18.20;99.90
7461;DHT22;6757;52.258;12.840;2022-10-17T09:09:13;18.30;99.90
7461;DHT22;6757;52.258;12.840;2022-10-17T09:11:58;18.40;99.90
7461;DHT22;6757;52.258;12.840;2022-10-17T09:14:50;18.50;99.90
7461;DHT22;6757;52.258;12.840;2022-10-17T09:17:33;18.60;99.90
7461;DHT22;6757;52.258;12.840;2022-10-17T09:20:09;18.70;99.90
7461;DHT22;6757;52.258;12.840;2022-10-17T09:22:41;18.80;99.90
7461;DHT22;6757;52.258;12.840;2022-10-17T09:25:14;19.00;99.90
7461;DHT22;6757;52.258;12.840;2022-10-17T09:27:46;19.10;99.90
7461;DHT22;6757;52.258;12.840;2022-10-17T09:30:37;19.20;99.90
7461;DHT22;6757;52.258;12.840;2022-10-17T09:33:14;19.30;99.90
7461;DHT22;6757;52.258;12.840;2022-10-17T09:35:42;19.40;99.90
7461;DHT22;6757;52.258;12.840;2022-10-17T09:38:17;19.50;99.90
7461;DHT22;6757;52.258;12.840;2022-10-17T09:40:49;19.60;99.90
7461;DHT22;6757;52.258;12.840;2022-10-17T09:43:20;19.70;99.90
7461;DHT22;6757;52.258;12.840;2022-10-17T09:45:58;19.80;99.90
7461;DHT22;6757;52.258;12.840;2022-10-17T09:48:33;19.90;99.90
7461;DHT22;6757;52.258;12.840;2022-10-17T09:51:05;20.00;99.90
7461;DHT22;6757;52.258;12.840;2022-10-17T09:53:34;20.10;99.90
7461;DHT22;6757;52.258;12.840;2022-10-17T09:56:07;20.30;99.90
7461;DHT22;6757;52.258;12.840;2022-10-17T09:58:40;20.40;99.90
7461;DHT22;6757;52.258;12.840;2022-10-17T10:01:18;20.50;99.90
7461;DHT22;6757;52.258;12.840;2022-10-17T10:03:48;20.70;99.90
7461;DHT22;6757;52.258;12.840;2022-10-17T10:06:17;20.80;99.90
7461;DHT22;6757;52.258;12.840;2022-10-17T10:08:50;20.80;99.90
7461;DHT22;6757;52.258;12.840;2022-10-17T10:11:21;20.90;99.90
7461;DHT22;6757;52.258;12.840;2022-10-17T10:13:49;21.00;99.90
7461;DHT22;6757;52.258;12.840;2022-10-17T10:16:20;21.10;99.90
7461;DHT22;6757;52.258;12.840;2022-10-17T10:18:50;21.30;99.90
7461;DHT22;6757;52.258;12.840;2022-10-17T10:21:18;21.40;99.90
7461;DHT22;6757;52.258;12.840;2022-10-17T10:24:03;21.50;99.90
7461;DHT22;6757;52.258;12.840;2022-10-17T10:26:35;21.70;99.90
7461;DHT22;6757;52.258;12.840;2022-10-17T10:29:15;21.80;99.90
7461;DHT22;6757;52.258;12.840;2022-10-17T10:31:47;21.90;99.90
7461;DHT22;6757;52.258;12.840;2022-10-17T10:34:19;21.90;99.90
7461;DHT22;6757;52.258;12.840;2022-10-17T10:36:55;22.00;99.90
7461;DHT22;6757;52.258;12.840;2022-10-17T10:39:35;22.10;99.90
7461;DHT22;6757;52.258;12.840;2022-10-17T10:42:08;22.10;99.90
7461;DHT22;6757;52.258;12.840;2022-10-17T10:44:44;22.20;99.90
7461;DHT22;6757;52.258;12.840;2022-10-17T10:47:19;22.40;99.90
7461;DHT22;6757;52.258;12.840;2022-10-17T10:49:50;22.40;99.90
7461;DHT22;6757;52.258;12.840;2022-10-17T10:52:29;22.60;99.90
7461;DHT22;6757;52.258;12.840;2022-10-17T10:55:04;22.60;99.90
7461;DHT22;6757;52.258;12.840;2022-10-17T10:57:43;22.70;99.90
7461;DHT22;6757;52.258;12.840;2022-10-17T11:00:14;22.70;99.90
7461;DHT22;6757;52.258;12.840;2022-10-17T11:02:48;22.80;99.90
7461;DHT22;6757;52.258;12.840;2022-10-17T11:05:33;23.30;99.90
7461;DHT22;6757;52.258;12.840;2022-10-17T11:08:06;22.70;99.90
7461;DHT22;6757;52.258;12.840;2022-10-17T11:10:44;22.70;99.90
7461;DHT22;6757;52.258;12.840;2022-10-17T11:13:18;22.80;99.90
7461;DHT22;6757;52.258;12.840;2022-10-17T11:15:51;22.80;99.90
7461;DHT22;6757;52.258;12.840;2022-10-17T11:18:23;22.80;99.90
7461;DHT22;6757;52.258;12.840;2022-10-17T11:20:58;22.90;99.90
7461;DHT22;6757;52.258;12.840;2022-10-17T11:23:33;22.90;99.90
7461;DHT22;6757;52.258;12.840;2022-10-17T11:26:10;23.00;99.90
7461;DHT22;6757;52.258;12.840;2022-10-17T11:28:39;23.10;99.90
7461;DHT22;6757;52.258;12.840;2022-10-17T11:31:09;23.20;99.90
7461;DHT22;6757;52.258;12.840;2022-10-17T11:33:44;23.20;99.90
7461;DHT22;6757;52.258;12.840;2022-10-17T11:36:15;23.30;99.90
7461;DHT22;6757;52.258;12.840;2022-10-17T11:38:46;23.40;99.90
7461;DHT22;6757;52.258;12.840;2022-10-17T11:41:18;23.50;99.90
7461;DHT22;6757;52.258;12.840;2022-10-17T11:43:50;23.50;99.90
7461;DHT22;6757;52.258;12.840;2022-10-17T11:46:21;23.60;99.90
7461;DHT22;6757;52.258;12.840;2022-10-17T11:49:01;23.60;99.90
7461;DHT22;6757;52.258;12.840;2022-10-17T11:51:39;23.60;99.90
7461;DHT22;6757;52.258;12.840;2022-10-17T11:54:10;23.60;99.90
7461;DHT22;6757;52.258;12.840;2022-10-17T11:56:43;23.60;99.90
7461;DHT22;6757;52.258;12.840;2022-10-17T11:59:37;23.70;99.90
7461;DHT22;6757;52.258;12.840;2022-10-17T12:02:18;23.70;99.90
7461;DHT22;6757;52.258;12.840;2022-10-17T12:04:56;23.80;99.90
7461;DHT22;6757;52.258;12.840;2022-10-17T12:07:35;24.00;99.90
7461;DHT22;6757;52.258;12.840;2022-10-17T12:10:18;24.10;99.90
7461;DHT22;6757;52.258;12.840;2022-10-17T12:12:50;24.40;99.90
7461;DHT22;6757;52.258;12.840;2022-10-17T12:15:29;24.60;99.90
7461;DHT22;6757;52.258;12.840;2022-10-17T12:17:57;24.80;99.90
7461;DHT22;6757;52.258;12.840;2022-10-17T12:20:28;25.10;99.90
7461;DHT22;6757;52.258;12.840;2022-10-17T12:23:05;25.30;99.90
7461;DHT22;6757;52.258;12.840;2022-10-17T12:25:49;25.50;99.90
7461;DHT22;6757;52.258;12.840;2022-10-17T12:28:26;25.60;99.90
7461;DHT22;6757;52.258;12.840;2022-10-17T12:30:57;25.90;99.90
7461;DHT22;6757;52.258;12.840;2022-10-17T12:33:33;26.30;99.90
7461;DHT22;6757;52.258;12.840;2022-10-17T12:49:00;27.90;99.90
7461;DHT22;6757;52.258;12.840;2022-10-17T12:51:28;28.00;99.90
7461;DHT22;6757;52.258;12.840;2022-10-17T12:53:58;28.00;99.90
7461;DHT22;6757;52.258;12.840;2022-10-17T12:56:36;27.90;99.90
7461;DHT22;6757;52.258;12.840;2022-10-17T12:59:08;27.90;99.30
7461;DHT22;6757;52.258;12.840;2022-10-17T13:01:44;27.90;98.90
7461;DHT22;6757;52.258;12.840;2022-10-17T13:04:12;27.90;98.40
7461;DHT22;6757;52.258;12.840;2022-10-17T13:06:44;28.00;98.00
7461;DHT22;6757;52.258;12.840;2022-10-17T13:09:21;28.10;97.70
7461;DHT22;6757;52.258;12.840;2022-10-17T13:11:55;28.00;97.40
7461;DHT22;6757;52.258;12.840;2022-10-17T13:14:24;28.00;97.20
7461;DHT22;6757;52.258;12.840;2022-10-17T13:16:53;27.90;96.70
7461;DHT22;6757;52.258;12.840;2022-10-17T13:19:23;27.80;96.50
7461;DHT22;6757;52.258;12.840;2022-10-17T13:21:52;27.80;96.30
7461;DHT22;6757;52.258;12.840;2022-10-17T13:24:28;27.80;96.30
7461;DHT22;6757;52.258;12.840;2022-10-17T13:26:57;27.90;95.90
7461;DHT22;6757;52.258;12.840;2022-10-17T13:29:25;28.10;95.60
7461;DHT22;6757;52.258;12.840;2022-10-17T13:31:55;28.30;94.70
7461;DHT22;6757;52.258;12.840;2022-10-17T13:34:27;28.40;93.60
7461;DHT22;6757;52.258;12.840;2022-10-17T13:36:55;28.60;93.40
7461;DHT22;6757;52.258;12.840;2022-10-17T13:39:28;28.40;93.30
7461;DHT22;6757;52.258;12.840;2022-10-17T13:42:01;28.50;93.00
7461;DHT22;6757;52.258;12.840;2022-10-17T13:44:32;28.60;92.60
7461;DHT22;6757;52.258;12.840;2022-10-17T13:47:00;28.80;92.30
7461;DHT22;6757;52.258;12.840;2022-10-17T13:49:32;29.10;91.70
7461;DHT22;6757;52.258;12.840;2022-10-17T13:52:02;29.50;91.30
7461;DHT22;6757;52.258;12.840;2022-10-17T13:54:36;30.20;90.80
7461;DHT22;6757;52.258;12.840;2022-10-17T13:57:17;30.50;89.70
7461;DHT22;6757;52.258;12.840;2022-10-17T13:59:47;31.00;87.10
7461;DHT22;6757;52.258;12.840;2022-10-17T14:02:18;31.50;85.00
7461;DHT22;6757;52.258;12.840;2022-10-17T14:04:46;31.70;83.50
7461;DHT22;6757;52.258;12.840;2022-10-17T14:07:23;31.70;81.20
7461;DHT22;6757;52.258;12.840;2022-10-17T14:09:51;31.40;79.70
7461;DHT22;6757;52.258;12.840;2022-10-17T14:12:20;31.20;79.50
7461;DHT22;6757;52.258;12.840;2022-10-17T14:14:51;30.90;79.20
7461;DHT22;6757;52.258;12.840;2022-10-17T14:17:23;30.50;79.20
7461;DHT22;6757;52.258;12.840;2022-10-17T14:19:53;30.30;79.70
7461;DHT22;6757;52.258;12.840;2022-10-17T14:22:27;30.30;80.00
7461;DHT22;6757;52.258;12.840;2022-10-17T14:24:54;30.40;80.10
7461;DHT22;6757;52.258;12.840;2022-10-17T14:27:29;30.50;80.00
7461;DHT22;6757;52.258;12.840;2022-10-17T14:30:00;30.60;79.60
7461;DHT22;6757;52.258;12.840;2022-10-17T14:32:32;30.50;79.30
7461;DHT22;6757;52.258;12.840;2022-10-17T14:35:03;30.30;79.50
7461;DHT22;6757;52.258;12.840;2022-10-17T14:37:35;30.10;79.60
7461;DHT22;6757;52.258;12.840;2022-10-17T14:40:05;29.90;79.40
7461;DHT22;6757;52.258;12.840;2022-10-17T14:42:38;29.80;79.80
7461;DHT22;6757;52.258;12.840;2022-10-17T14:45:08;29.60;80.00
7461;DHT22;6757;52.258;12.840;2022-10-17T14:47:38;29.50;80.20
7461;DHT22;6757;52.258;12.840;2022-10-17T14:50:15;29.20;80.70
7461;DHT22;6757;52.258;12.840;2022-10-17T14:52:58;28.90;81.20
7461;DHT22;6757;52.258;12.840;2022-10-17T14:55:30;28.50;81.90
7461;DHT22;6757;52.258;12.840;2022-10-17T14:58:00;28.10;82.70
7461;DHT22;6757;52.258;12.840;2022-10-17T15:00:27;27.80;83.70
7461;DHT22;6757;52.258;12.840;2022-10-17T15:02:55;27.50;84.60
7461;DHT22;6757;52.258;12.840;2022-10-17T15:05:22;27.30;85.50
7461;DHT22;6757;52.258;12.840;2022-10-17T15:07:49;27.00;86.30
7461;DHT22;6757;52.258;12.840;2022-10-17T15:10:26;26.80;87.10
7461;DHT22;6757;52.258;12.840;2022-10-17T15:12:56;26.60;88.00
7461;DHT22;6757;52.258;12.840;2022-10-17T15:15:26;26.40;88.70
7461;DHT22;6757;52.258;12.840;2022-10-17T15:17:53;26.30;89.50
7461;DHT22;6757;52.258;12.840;2022-10-17T15:20:20;26.10;90.00
7461;DHT22;6757;52.258;12.840;2022-10-17T15:22:50;25.90;90.30
7461;DHT22;6757;52.258;12.840;2022-10-17T15:25:17;25.80;90.70
7461;DHT22;6757;52.258;12.840;2022-10-17T15:27:44;25.60;91.00
7461;DHT22;6757;52.258;12.840;2022-10-17T15:30:17;25.50;91.30
7461;DHT22;6757;52.258;12.840;2022-10-17T15:32:48;25.30;91.50
7461;DHT22;6757;52.258;12.840;2022-10-17T15:35:16;25.30;91.80
7461;DHT22;6757;52.258;12.840;2022-10-17T15:37:44;25.20;92.20
7461;DHT22;6757;52.258;12.840;2022-10-17T15:40:13;25.00;92.50
7461;DHT22;6757;52.258;12.840;2022-10-17T15:42:42;24.90;92.90
7461;DHT22;6757;52.258;12.840;2022-10-17T15:45:09;24.70;93.30
7461;DHT22;6757;52.258;12.840;2022-10-17T15:47:37;24.50;93.90
7461;DHT22;6757;52.258;12.840;2022-10-17T15:50:06;24.40;94.60
7461;DHT22;6757;52.258;12.840;2022-10-17T15:52:38;24.10;95.30
7461;DHT22;6757;52.258;12.840;2022-10-17T15:55:06;23.90;96.00
7461;DHT22;6757;52.258;12.840;2022-10-17T15:57:36;23.70;96.60
7461;DHT22;6757;52.258;12.840;2022-10-17T16:00:07;23.50;97.30
7461;DHT22;6757;52.258;12.840;2022-10-17T16:02:41;23.30;98.00
7461;DHT22;6757;52.258;12.840;2022-10-17T16:05:13;23.10;98.70
7461;DHT22;6757;52.258;12.840;2022-10-17T16:07:42;22.90;99.50
7461;DHT22;6757;52.258;12.840;2022-10-17T16:10:10;22.70;99.90
7461;DHT22;6757;52.258;12.840;2022-10-17T16:12:37;22.50;99.90
7461;DHT22;6757;52.258;12.840;2022-10-17T16:15:06;22.40;99.90
7461;DHT22;6757;52.258;12.840;2022-10-17T16:17:34;22.20;99.90
7461;DHT22;6757;52.258;12.840;2022-10-17T16:20:01;22.00;99.90
7461;DHT22;6757;52.258;12.840;2022-10-17T16:22:32;21.90;99.90
7461;DHT22;6757;52.258;12.840;2022-10-17T16:25:01;21.70;99.90
7461;DHT22;6757;52.258;12.840;2022-10-17T16:27:34;21.50;99.90